createdAt,value
2019-03-20T00:00:34.185Z,11.10
2019-03-20T00:03:01.783Z,11.02
2019-03-20T00:05:29.191Z,11.02
2019-03-20T00:07:56.642Z,10.95
2019-03-20T00:10:24.842Z,10.91
2019-03-20T00:12:52.360Z,10.98
2019-03-20T00:15:19.785Z,11.03
2019-03-20T00:17:47.242Z,11.07
2019-03-20T00:20:14.826Z,11.10
2019-03-20T00:22:43.281Z,11.13
2019-03-20T00:25:11.965Z,11.09
2019-03-20T00:27:39.449Z,11.04
2019-03-20T00:30:08.566Z,10.97
2019-03-20T00:32:36.679Z,11.07
2019-03-20T00:35:04.424Z,10.98
2019-03-20T00:37:31.784Z,10.90
2019-03-20T00:39:59.281Z,10.80
2019-03-20T00:42:26.782Z,10.83
2019-03-20T00:44:54.263Z,10.81
2019-03-20T00:47:21.724Z,10.93
2019-03-20T00:49:49.130Z,10.71
2019-03-20T00:52:16.568Z,10.61
2019-03-20T00:54:44.021Z,10.48
2019-03-20T00:57:11.517Z,10.50
2019-03-20T00:59:39.009Z,10.64
2019-03-20T01:02:06.514Z,10.61
2019-03-20T01:04:34.074Z,10.48
2019-03-20T01:07:01.547Z,10.44
2019-03-20T01:09:28.968Z,10.65
2019-03-20T01:11:56.410Z,10.54
2019-03-20T01:14:24.019Z,10.33
2019-03-20T01:16:51.573Z,10.34
2019-03-20T01:19:19.116Z,10.38
2019-03-20T01:21:46.642Z,10.22
2019-03-20T01:24:14.136Z,10.17
2019-03-20T01:26:42.730Z,10.26
2019-03-20T01:29:10.191Z,10.14
2019-03-20T01:31:37.648Z,10.25
2019-03-20T01:34:05.106Z,10.18
2019-03-20T01:36:32.592Z,10.35
2019-03-20T01:39:00.075Z,10.38
2019-03-20T01:41:37.551Z,10.26
2019-03-20T01:43:56.955Z,10.12
2019-03-20T01:46:24.431Z,10.15
2019-03-20T01:48:51.860Z,9.75
2019-03-20T01:51:20.940Z,9.84
2019-03-20T01:53:48.435Z,9.83
2019-03-20T01:56:15.958Z,9.77
2019-03-20T01:58:43.590Z,9.80
2019-03-20T02:01:11.112Z,9.85
2019-03-20T02:03:40.840Z,9.71
2019-03-20T02:06:08.168Z,9.82
2019-03-20T02:08:35.616Z,9.82
2019-03-20T02:11:03.278Z,9.62
2019-03-20T02:13:30.686Z,9.68
2019-03-20T02:15:58.726Z,9.49
2019-03-20T02:18:26.186Z,9.68
2019-03-20T02:20:53.613Z,9.68
2019-03-20T02:23:21.072Z,9.69
2019-03-20T02:25:48.605Z,9.66
2019-03-20T02:28:16.030Z,9.74
2019-03-20T02:30:43.462Z,9.55
2019-03-20T02:33:10.970Z,9.44
2019-03-20T02:35:50.732Z,9.37
2019-03-20T02:38:07.746Z,9.26
2019-03-20T02:40:35.198Z,9.20
2019-03-20T02:43:03.323Z,9.08
2019-03-20T02:45:30.824Z,9.07
2019-03-20T02:47:58.430Z,8.92
2019-03-20T02:50:25.823Z,8.96
2019-03-20T02:52:53.315Z,9.11
2019-03-20T02:55:20.811Z,9.24
2019-03-20T02:57:48.559Z,9.06
2019-03-20T03:00:16.137Z,9.11
2019-03-20T03:02:43.738Z,9.27
2019-03-20T03:05:11.657Z,9.07
2019-03-20T03:07:39.264Z,9.18
2019-03-20T03:10:07.808Z,9.18
2019-03-20T03:12:35.303Z,9.26
2019-03-20T03:15:03.014Z,9.00
2019-03-20T03:17:30.778Z,9.13
2019-03-20T03:19:58.245Z,8.93
2019-03-20T03:22:25.743Z,8.85
2019-03-20T03:24:53.222Z,8.86
2019-03-20T03:27:20.630Z,8.60
2019-03-20T03:29:48.083Z,8.65
2019-03-20T03:32:15.522Z,8.67
2019-03-20T03:34:42.910Z,8.52
2019-03-20T03:37:10.451Z,8.64
2019-03-20T03:39:38.010Z,8.64
2019-03-20T03:42:06.927Z,8.44
2019-03-20T03:44:34.614Z,8.27
2019-03-20T03:47:02.051Z,8.51
2019-03-20T03:49:29.516Z,8.60
2019-03-20T03:51:57.213Z,8.32
2019-03-20T03:54:25.069Z,8.07
2019-03-20T03:56:52.695Z,7.99
2019-03-20T03:59:20.224Z,8.24
2019-03-20T04:01:47.635Z,8.24
2019-03-20T04:04:15.677Z,8.09
2019-03-20T04:06:43.401Z,8.16
2019-03-20T04:09:11.336Z,8.02
2019-03-20T04:11:38.817Z,7.83
2019-03-20T04:14:06.285Z,7.68
2019-03-20T04:16:34.348Z,7.48
2019-03-20T04:19:02.091Z,7.61
2019-03-20T04:21:29.600Z,7.85
2019-03-20T04:23:57.343Z,7.81
2019-03-20T04:26:24.758Z,8.09
2019-03-20T04:28:52.214Z,8.11
2019-03-20T04:31:19.815Z,7.96
2019-03-20T04:33:47.338Z,8.01
2019-03-20T04:36:14.990Z,7.99
2019-03-20T04:38:42.444Z,7.78
2019-03-20T04:41:09.883Z,7.78
2019-03-20T04:43:37.343Z,7.68
2019-03-20T04:46:04.872Z,7.41
2019-03-20T04:48:32.287Z,7.37
2019-03-20T04:50:59.734Z,7.61
2019-03-20T04:53:27.214Z,7.79
2019-03-20T04:55:54.746Z,7.83
2019-03-20T04:58:22.637Z,7.96
2019-03-20T05:00:50.348Z,7.92
2019-03-20T05:03:17.826Z,8.01
2019-03-20T05:05:45.527Z,8.00
2019-03-20T05:08:13.120Z,8.20
2019-03-20T05:10:40.574Z,8.46
2019-03-20T05:13:08.256Z,8.37
2019-03-20T05:15:35.815Z,8.28
2019-03-20T05:18:03.273Z,8.12
2019-03-20T05:20:30.734Z,8.16
2019-03-20T05:22:58.248Z,8.13
2019-03-20T05:25:25.627Z,7.95
2019-03-20T05:27:53.205Z,7.73
2019-03-20T05:30:20.967Z,7.61
2019-03-20T05:32:48.545Z,8.04
2019-03-20T05:35:15.996Z,8.25
2019-03-20T05:37:43.583Z,8.46
2019-03-20T05:40:11.820Z,8.38
2019-03-20T05:42:39.405Z,8.56
2019-03-20T05:45:08.300Z,8.74
2019-03-20T05:47:35.766Z,8.73
2019-03-20T05:50:04.011Z,8.43
2019-03-20T05:52:31.430Z,8.54
2019-03-20T05:54:59.116Z,8.61
2019-03-20T05:57:26.588Z,8.85
2019-03-20T05:59:53.998Z,9.06
2019-03-20T06:02:21.502Z,8.95
2019-03-20T06:04:51.370Z,9.26
2019-03-20T06:07:21.913Z,8.85
2019-03-20T06:09:48.400Z,8.92
2019-03-20T06:12:15.989Z,9.23
2019-03-20T06:14:43.358Z,9.54
2019-03-20T06:17:10.829Z,9.60
2019-03-20T06:19:38.374Z,9.82
2019-03-20T06:22:05.814Z,9.58
2019-03-20T06:24:33.312Z,9.78
2019-03-20T06:27:00.780Z,9.71
2019-03-20T06:29:28.210Z,9.54
2019-03-20T06:31:55.746Z,9.63
2019-03-20T06:34:23.202Z,9.67
2019-03-20T06:36:50.693Z,9.93
2019-03-20T06:39:18.170Z,10.03
2019-03-20T06:41:45.598Z,10.44
2019-03-20T06:44:13.050Z,10.69
2019-03-20T06:46:40.513Z,10.49
2019-03-20T06:49:08.164Z,9.94
2019-03-20T06:51:35.680Z,10.09
2019-03-20T06:54:03.235Z,10.62
2019-03-20T06:56:30.745Z,10.64
2019-03-20T06:59:55.012Z,10.84
2019-03-20T07:02:22.539Z,10.66
2019-03-20T07:05:24.550Z,10.40
2019-03-20T07:07:52.357Z,10.77
2019-03-20T07:10:45.312Z,11.04
2019-03-20T07:13:12.843Z,11.14
2019-03-20T07:15:40.359Z,11.27
2019-03-20T07:18:07.808Z,11.19
2019-03-20T07:20:35.333Z,11.40
2019-03-20T07:23:02.812Z,11.48
2019-03-20T07:25:30.215Z,11.78
2019-03-20T07:27:57.783Z,12.10
2019-03-20T07:30:25.314Z,12.42
2019-03-20T07:32:52.735Z,12.65
2019-03-20T07:35:20.208Z,12.96
2019-03-20T07:37:55.536Z,12.81
2019-03-20T07:40:17.417Z,12.92
2019-03-20T07:42:44.838Z,12.89
2019-03-20T07:45:12.415Z,12.71
2019-03-20T07:47:39.849Z,12.65
2019-03-20T07:50:09.002Z,13.09
2019-03-20T07:52:36.445Z,12.93
2019-03-20T07:55:05.642Z,12.51
2019-03-20T07:57:33.237Z,12.80
2019-03-20T08:00:00.793Z,12.97
2019-03-20T08:02:28.340Z,13.23
2019-03-20T08:04:55.843Z,13.37
2019-03-20T08:07:23.534Z,13.28
2019-03-20T08:09:51.134Z,13.51
2019-03-20T08:12:18.664Z,13.37
2019-03-20T08:14:46.065Z,12.96
2019-03-20T08:17:13.561Z,12.62
2019-03-20T08:19:41.012Z,12.62
2019-03-20T08:22:08.531Z,12.53
2019-03-20T08:24:35.979Z,12.61
2019-03-20T08:27:03.445Z,12.90
2019-03-20T08:29:30.837Z,12.94
2019-03-20T08:31:58.281Z,12.76
2019-03-20T08:34:25.920Z,12.51
2019-03-20T08:36:53.527Z,12.69
2019-03-20T08:39:21.021Z,12.97
2019-03-20T08:41:48.464Z,13.55
2019-03-20T08:44:15.917Z,13.25
2019-03-20T08:46:43.370Z,12.91
2019-03-20T08:49:10.987Z,12.66
2019-03-20T08:51:38.394Z,12.59
2019-03-20T08:54:05.887Z,12.86
2019-03-20T08:56:33.402Z,12.87
2019-03-20T08:59:01.975Z,13.25
2019-03-20T09:01:29.467Z,13.46
2019-03-20T09:03:56.945Z,13.54
2019-03-20T09:06:24.524Z,13.76
2019-03-20T09:08:51.979Z,13.73
2019-03-20T09:11:19.535Z,13.73
2019-03-20T09:13:47.141Z,13.74
2019-03-20T09:16:14.634Z,13.68
2019-03-20T09:18:42.145Z,13.77
2019-03-20T09:21:09.678Z,13.61
2019-03-20T09:23:38.180Z,13.50
2019-03-20T09:26:06.982Z,13.52
2019-03-20T09:28:34.487Z,14.02
2019-03-20T09:31:01.997Z,13.90
2019-03-20T09:33:29.484Z,14.01
2019-03-20T09:35:57.040Z,14.15
2019-03-20T09:38:24.527Z,14.27
2019-03-20T09:40:51.988Z,14.39
2019-03-20T09:43:19.539Z,14.71
2019-03-20T09:45:47.102Z,14.92
2019-03-20T09:48:14.497Z,15.10
2019-03-20T09:50:42.049Z,14.84
2019-03-20T09:53:09.522Z,14.52
2019-03-20T09:55:37.006Z,14.05
2019-03-20T09:58:11.485Z,14.15
2019-03-20T10:00:33.905Z,14.15
2019-03-20T10:03:01.544Z,14.07
2019-03-20T10:05:29.059Z,14.20
2019-03-20T10:07:56.607Z,14.64
2019-03-20T10:10:24.228Z,14.84
2019-03-20T10:12:51.847Z,15.12
2019-03-20T10:15:19.424Z,15.23
2019-03-20T10:17:47.017Z,15.05
2019-03-20T10:20:16.920Z,15.01
2019-03-20T10:22:44.429Z,15.07
2019-03-20T10:25:12.145Z,15.11
2019-03-20T10:27:39.789Z,15.19
2019-03-20T10:30:11.371Z,15.27
2019-03-20T10:32:38.811Z,15.22
2019-03-20T10:35:08.130Z,15.24
2019-03-20T10:37:35.647Z,15.14
2019-03-20T10:40:04.538Z,15.20
2019-03-20T10:42:32.040Z,15.27
2019-03-20T10:44:59.568Z,15.76
2019-03-20T10:47:27.126Z,16.13
2019-03-20T10:49:54.715Z,16.10
2019-03-20T10:52:22.164Z,15.98
2019-03-20T10:54:49.620Z,15.88
2019-03-20T10:57:17.527Z,15.94
2019-03-20T10:59:44.999Z,15.87
2019-03-20T11:02:12.595Z,15.91
2019-03-20T11:04:40.197Z,16.13
2019-03-20T11:07:07.785Z,16.24
2019-03-20T11:09:35.328Z,16.30
2019-03-20T11:12:02.984Z,16.56
2019-03-20T11:14:30.486Z,16.92
2019-03-20T11:16:57.975Z,17.27
2019-03-20T11:19:25.589Z,17.46
2019-03-20T11:21:53.205Z,17.21
2019-03-20T11:24:20.714Z,16.97
2019-03-20T11:26:48.269Z,17.00
2019-03-20T11:29:21.272Z,17.10
2019-03-20T11:31:45.214Z,16.88
2019-03-20T11:34:12.690Z,16.80
2019-03-20T11:36:40.102Z,17.10
2019-03-20T11:39:09.252Z,17.08
2019-03-20T11:41:36.868Z,17.19
2019-03-20T11:44:04.461Z,17.57
2019-03-20T11:46:31.974Z,17.75
2019-03-20T11:48:59.527Z,17.75
2019-03-20T11:51:26.904Z,17.80
2019-03-20T11:53:54.381Z,17.65
2019-03-20T11:56:21.879Z,17.70
2019-03-20T11:58:49.353Z,17.47
2019-03-20T12:01:16.862Z,17.13
2019-03-20T12:03:44.422Z,17.31
2019-03-20T12:06:11.929Z,17.24
2019-03-20T12:08:39.392Z,17.52
2019-03-20T12:11:07.029Z,17.57
2019-03-20T12:13:34.604Z,17.51
2019-03-20T12:16:02.022Z,17.87
2019-03-20T12:18:29.543Z,17.86
2019-03-20T12:20:57.212Z,17.70
2019-03-20T12:23:24.608Z,17.55
2019-03-20T12:25:52.465Z,17.35
2019-03-20T12:28:19.990Z,17.31
2019-03-20T12:30:47.441Z,17.35
2019-03-20T12:33:14.951Z,17.34
2019-03-20T12:35:42.396Z,17.23
2019-03-20T12:38:14.773Z,17.19
2019-03-20T12:40:39.400Z,17.26
2019-03-20T12:43:07.055Z,17.52
2019-03-20T12:45:34.698Z,17.37
2019-03-20T12:48:02.439Z,17.10
2019-03-20T12:50:30.118Z,17.10
2019-03-20T12:52:57.665Z,16.97
2019-03-20T12:55:25.211Z,17.24
2019-03-20T12:57:52.688Z,17.28
2019-03-20T13:00:21.307Z,17.10
2019-03-20T13:02:49.099Z,17.07
2019-03-20T13:05:16.727Z,16.81
2019-03-20T13:07:44.250Z,16.79
2019-03-20T13:10:13.973Z,16.74
2019-03-20T13:12:41.608Z,16.64
2019-03-20T13:15:11.926Z,16.74
2019-03-20T13:17:39.371Z,16.63
2019-03-20T13:20:07.785Z,16.54
2019-03-20T13:22:35.397Z,16.63
2019-03-20T13:25:03.023Z,16.61
2019-03-20T13:27:30.611Z,16.71
2019-03-20T13:29:58.155Z,16.60
2019-03-20T13:32:25.630Z,16.66
2019-03-20T13:34:53.111Z,16.71
2019-03-20T13:37:20.554Z,16.67
2019-03-20T13:39:48.065Z,16.74
2019-03-20T13:42:15.518Z,16.57
2019-03-20T13:44:43.036Z,16.52
2019-03-20T13:47:10.582Z,16.54
2019-03-20T13:49:38.087Z,16.44
2019-03-20T13:52:05.627Z,16.10
2019-03-20T13:54:33.140Z,16.07
2019-03-20T13:57:00.595Z,15.98
2019-03-20T13:59:28.102Z,16.15
2019-03-20T14:01:55.614Z,16.08
2019-03-20T14:04:23.175Z,16.10
2019-03-20T14:06:50.661Z,16.10
2019-03-20T14:09:18.137Z,16.08
2019-03-20T14:11:45.586Z,15.85
2019-03-20T14:14:13.247Z,15.85
2019-03-20T14:16:40.774Z,15.81
2019-03-20T14:19:10.551Z,15.79
2019-03-20T14:21:37.721Z,15.74
2019-03-20T14:24:05.113Z,15.70
2019-03-20T14:26:32.581Z,15.65
2019-03-20T14:29:00.108Z,15.63
2019-03-20T14:31:28.183Z,15.68
2019-03-20T14:33:55.661Z,15.80
2019-03-20T14:36:23.158Z,15.90
2019-03-20T14:38:50.571Z,16.12
2019-03-20T14:41:21.835Z,16.38
2019-03-20T14:43:47.422Z,16.52
2019-03-20T14:46:14.858Z,16.50
2019-03-20T14:48:42.365Z,16.59
2019-03-20T14:51:09.860Z,16.91
2019-03-20T14:53:37.439Z,16.76
2019-03-20T14:56:04.993Z,16.30
2019-03-20T14:58:32.538Z,16.00
2019-03-20T15:01:00.037Z,15.69
2019-03-20T15:03:27.548Z,15.46
2019-03-20T15:05:55.059Z,15.33
2019-03-20T15:08:22.608Z,15.23
2019-03-20T15:10:50.137Z,15.30
2019-03-20T15:13:17.688Z,15.30
2019-03-20T15:15:58.015Z,15.16
2019-03-20T15:18:25.479Z,15.09
2019-03-20T15:20:52.898Z,14.92
2019-03-20T15:23:20.482Z,14.87
2019-03-20T15:25:48.088Z,14.80
2019-03-20T15:28:15.547Z,14.77
2019-03-20T15:30:43.097Z,14.67
2019-03-20T15:33:10.596Z,14.60
2019-03-20T15:35:38.028Z,14.56
2019-03-20T15:38:05.627Z,14.40
2019-03-20T15:40:33.147Z,14.58
2019-03-20T15:43:00.806Z,14.42
2019-03-20T15:45:30.547Z,14.35
2019-03-20T15:47:58.039Z,14.26
2019-03-20T15:50:25.957Z,14.09
2019-03-20T15:52:53.472Z,14.01
2019-03-20T15:55:25.919Z,14.01
2019-03-20T15:57:53.351Z,13.85
2019-03-20T16:00:20.933Z,13.74
2019-03-20T16:02:49.619Z,13.74
2019-03-20T16:05:17.044Z,13.71
2019-03-20T16:07:44.702Z,13.60
2019-03-20T16:10:15.270Z,13.52
2019-03-20T16:12:42.881Z,13.52
2019-03-20T16:15:12.222Z,13.48
2019-03-20T16:17:40.005Z,13.39
2019-03-20T16:20:08.892Z,13.42
2019-03-20T16:22:36.388Z,13.34
2019-03-20T16:25:04.172Z,13.38
2019-03-20T16:27:31.674Z,13.35
2019-03-20T16:29:59.144Z,13.27
2019-03-20T16:32:26.609Z,13.15
2019-03-20T16:34:54.089Z,13.08
2019-03-20T16:37:21.614Z,13.05
2019-03-20T16:39:49.093Z,12.93
2019-03-20T16:42:16.624Z,12.88
2019-03-20T16:44:44.066Z,12.74
2019-03-20T16:47:11.557Z,12.70
2019-03-20T16:49:39.141Z,12.63
2019-03-20T16:52:06.755Z,12.58
2019-03-20T16:54:34.237Z,12.51
2019-03-20T16:57:01.707Z,12.43
2019-03-20T16:59:29.271Z,12.42
2019-03-20T17:01:56.881Z,12.39
2019-03-20T17:04:24.409Z,12.32
2019-03-20T17:06:51.967Z,12.27
2019-03-20T17:09:19.567Z,12.27
2019-03-20T17:11:47.150Z,12.19
2019-03-20T17:14:14.758Z,12.14
2019-03-20T17:16:42.778Z,12.10
2019-03-20T17:19:10.950Z,12.07
2019-03-20T17:21:38.885Z,12.12
2019-03-20T17:24:06.407Z,12.17
2019-03-20T17:26:34.212Z,12.25
2019-03-20T17:29:08.939Z,12.30
2019-03-20T17:31:31.201Z,12.30
2019-03-20T17:33:58.642Z,12.32
2019-03-20T17:36:26.045Z,12.23
2019-03-20T17:38:53.520Z,12.25
2019-03-20T17:41:21.016Z,12.39
2019-03-20T17:43:48.528Z,12.30
2019-03-20T17:46:17.431Z,12.51
2019-03-20T17:48:45.269Z,12.37
2019-03-20T17:51:12.939Z,12.08
2019-03-20T17:53:40.548Z,12.09
2019-03-20T17:56:07.968Z,12.36
2019-03-20T17:58:35.371Z,12.35
2019-03-20T18:01:03.599Z,12.23
2019-03-20T18:03:31.116Z,12.12
2019-03-20T18:05:58.641Z,11.99
2019-03-20T18:08:26.266Z,11.97
2019-03-20T18:10:53.739Z,11.88
2019-03-20T18:13:21.265Z,11.82
2019-03-20T18:15:48.736Z,11.77
2019-03-20T18:18:16.381Z,11.70
2019-03-20T18:20:44.169Z,11.66
2019-03-20T18:23:11.792Z,11.63
2019-03-20T18:25:39.368Z,11.61
2019-03-20T18:28:06.845Z,11.58
2019-03-20T18:30:34.775Z,11.55
2019-03-20T18:33:02.394Z,11.54
2019-03-20T18:35:29.975Z,11.52
2019-03-20T18:37:57.475Z,11.53
2019-03-20T18:40:25.095Z,11.52
2019-03-20T18:42:52.745Z,11.56
2019-03-20T18:45:20.389Z,11.67
2019-03-20T18:47:48.091Z,11.76
2019-03-20T18:50:16.699Z,11.73
2019-03-20T18:52:44.251Z,11.71
2019-03-20T18:55:11.827Z,11.67
2019-03-20T18:57:39.334Z,11.82
2019-03-20T19:00:11.055Z,11.91
2019-03-20T19:02:38.935Z,11.77
2019-03-20T19:05:08.437Z,11.70
2019-03-20T19:07:36.157Z,11.58
2019-03-20T19:10:04.307Z,11.66
2019-03-20T19:12:31.901Z,11.63
2019-03-20T19:14:59.374Z,11.72
2019-03-20T19:17:27.753Z,11.78
2019-03-20T19:19:55.438Z,11.77
2019-03-20T19:22:23.434Z,11.84
2019-03-20T19:24:51.026Z,11.64
2019-03-20T19:27:19.011Z,11.40
2019-03-20T19:29:46.645Z,11.65
2019-03-20T19:32:14.132Z,11.61
2019-03-20T19:34:41.669Z,11.62
2019-03-20T19:37:09.067Z,11.51
2019-03-20T19:39:36.584Z,11.62
2019-03-20T19:42:05.971Z,11.88
2019-03-20T19:44:33.855Z,11.76
2019-03-20T19:47:01.279Z,11.75
2019-03-20T19:49:31.253Z,12.11
2019-03-20T19:51:58.799Z,12.18
2019-03-20T19:54:27.107Z,12.07
2019-03-20T19:56:55.033Z,12.39
2019-03-20T19:59:22.637Z,12.62
2019-03-20T20:01:50.134Z,12.41
2019-03-20T20:04:17.700Z,12.53
2019-03-20T20:06:45.685Z,12.56
2019-03-20T20:09:13.900Z,12.59
2019-03-20T20:11:41.698Z,12.48
2019-03-20T20:14:09.267Z,12.44
2019-03-20T20:16:42.106Z,12.50
2019-03-20T20:19:10.019Z,12.43
2019-03-20T20:21:37.694Z,12.42
2019-03-20T20:24:05.374Z,12.51
2019-03-20T20:26:33.373Z,12.63
2019-03-20T20:29:03.808Z,12.75
2019-03-20T20:31:31.860Z,12.57
2019-03-20T20:33:59.579Z,12.52
2019-03-20T20:36:32.426Z,12.39
2019-03-20T20:38:59.972Z,12.57
2019-03-20T20:41:28.253Z,12.46
2019-03-20T20:43:55.728Z,12.33
2019-03-20T20:46:24.293Z,12.35
2019-03-20T20:48:51.820Z,12.37
2019-03-20T20:51:19.398Z,12.30
2019-03-20T20:53:46.932Z,12.24
2019-03-20T20:56:14.461Z,12.10
2019-03-20T20:58:41.941Z,12.16
2019-03-20T21:01:09.473Z,12.07
2019-03-20T21:03:36.983Z,12.01
2019-03-20T21:06:04.571Z,11.99
2019-03-20T21:08:32.157Z,12.09
2019-03-20T21:10:59.723Z,12.03
2019-03-20T21:13:27.188Z,11.93
2019-03-20T21:15:57.966Z,11.91
2019-03-20T21:19:15.739Z,11.79
2019-03-20T21:22:25.296Z,11.74
2019-03-20T21:24:53.402Z,11.69
2019-03-20T21:28:02.767Z,11.64
2019-03-20T21:35:07.422Z,11.53
2019-03-20T21:38:03.395Z,11.59
2019-03-20T21:40:41.918Z,11.72
2019-03-20T21:43:34.425Z,11.72
2019-03-20T21:46:41.535Z,11.62
2019-03-20T21:49:09.616Z,11.69
2019-03-20T21:51:37.614Z,11.69
2019-03-20T21:54:34.682Z,11.69
2019-03-20T21:57:44.238Z,11.66
2019-03-20T22:01:01.116Z,11.59
2019-03-20T22:03:29.114Z,11.47
2019-03-20T22:06:36.872Z,11.54
2019-03-20T22:09:41.779Z,11.50
2019-03-20T22:12:25.650Z,11.52
2019-03-20T22:15:02.044Z,11.52
2019-03-20T22:18:29.123Z,11.60
2019-03-20T22:21:03.769Z,11.55
2019-03-20T22:24:24.749Z,11.47
2019-03-20T22:27:33.379Z,11.56
2019-03-20T22:30:01.379Z,11.50
2019-03-20T22:33:09.050Z,11.46
2019-03-20T22:36:09.034Z,11.49
2019-03-20T22:39:24.101Z,11.44
2019-03-20T22:42:25.421Z,11.29
2019-03-20T22:45:17.505Z,11.35
2019-03-20T22:48:19.720Z,11.28
2019-03-20T22:51:12.979Z,11.22
2019-03-20T22:54:37.283Z,11.22
2019-03-20T22:57:26.246Z,11.20
2019-03-20T22:59:54.220Z,11.18
2019-03-20T23:03:01.857Z,11.11
2019-03-20T23:05:29.961Z,11.30
2019-03-20T23:07:57.960Z,11.26
2019-03-20T23:10:26.006Z,11.22
2019-03-20T23:12:54.038Z,11.22
2019-03-20T23:15:22.043Z,11.18
2019-03-20T23:17:50.235Z,11.21
2019-03-20T23:20:21.014Z,11.15
2019-03-20T23:22:49.854Z,11.27
2019-03-20T23:25:17.948Z,11.24
2019-03-20T23:27:46.260Z,11.15
2019-03-20T23:30:17.313Z,11.19
2019-03-20T23:32:45.309Z,11.17
2019-03-20T23:35:13.228Z,11.12
2019-03-20T23:37:41.286Z,11.13
2019-03-20T23:40:11.739Z,11.18
2019-03-20T23:42:39.816Z,11.18
2019-03-20T23:45:09.451Z,11.15
2019-03-20T23:48:00.515Z,11.16
2019-03-20T23:50:28.530Z,11.07
2019-03-20T23:52:56.536Z,11.02
2019-03-20T23:55:24.508Z,10.95
2019-03-20T23:57:52.558Z,10.88
